Date,TemperatureHighF,TemperatureAvgF,TemperatureLowF,DewpointHighF,DewpointAvgF,DewpointLowF,HumidityHigh,HumidityAvg,HumidityLow,PressureMaxIn,PressureMinIn,WindSpeedMaxMPH,WindSpeedAvgMPH,GustSpeedMaxMPH,PrecipitationSumIn
2013-2-1,27,25,23,25,21,18,99,85,75,0.00,40.00,35,26,50,0.31
2013-2-2,35,29,22,19,13,7,83,53,33,0.00,40.00,43,29,58,0.01
2013-2-3,39,34,27,8,4,-1,43,29,18,0.00,40.00,32,26,45,0.00
2013-2-4,33,30,26,17,11,5,61,46,36,0.00,40.00,47,35,63,0.00
2013-2-5,43,36,28,23,18,11,61,49,27,0.00,40.00,39,28,54,0.01
2013-2-6,38,33,24,27,18,10,79,54,34,0.00,40.00,31,22,44,0.00
2013-2-7,41,28,19,13,0,-17,66,35,10,0.00,40.00,23,8,34,0.00
2013-2-8,42,32,22,22,5,-15,80,33,12,0.00,40.00,16,5,22,0.00
2013-2-9,30,20,16,26,18,14,100,92,66,0.00,40.00,14,2,17,0.98
2013-2-10,16,13,5,15,10,-3,98,90,67,0.00,40.00,13,5,17,0.32
2013-2-11,21,9,2,3,-3,-10,71,57,39,0.00,40.00,29,11,37,0.00
2013-2-12,22,15,9,12,5,-3,79,63,51,0.00,40.00,36,22,48,0.01
2013-2-13,25,22,18,20,17,13,93,82,76,0.00,40.00,46,33,63,0.14
2013-2-14,23,17,13,20,14,10,98,88,74,0.00,40.00,33,14,44,0.52
2013-2-15,24,19,15,17,13,9,88,76,66,0.00,40.00,37,25,53,0.06
2013-2-16,36,30,24,18,14,9,72,51,36,0.00,40.00,41,33,55,0.00
2013-2-17,38,29,17,23,10,-1,97,50,22,0.00,40.00,35,22,48,0.59
2013-2-18,20,16,13,16,10,-3,97,78,35,0.00,40.00,34,18,49,0.06
2013-2-19,36,24,12,12,1,-8,64,37,21,0.00,40.00,12,3,14,0.00
2013-2-20,37,28,17,22,11,2,100,54,25,0.00,40.00,12,6,15,0.00
2013-2-21,18,16,14,17,14,9,99,92,74,0.00,40.00,19,8,26,0.21
2013-2-22,19,16,14,13,8,6,80,71,56,0.00,40.00,45,23,63,0.00
2013-2-23,33,24,16,20,14,8,93,65,43,0.00,40.00,45,19,61,0.17
2013-2-24,19,15,9,17,12,2,97,90,65,0.00,40.00,14,8,17,0.83
2013-2-25,29,19,12,12,7,1,73,59,43,0.00,40.00,32,14,40,0.00
2013-2-26,21,17,14,16,12,8,97,83,66,0.00,40.00,30,16,45,0.22
2013-2-27,18,15,11,10,6,1,85,68,48,0.00,40.00,30,20,43,0.00
2013-2-28,25,20,15,17,10,4,78,65,54,0.00,40.00,35,28,47,0.00